This is the latest recevied weather packets stored in our database for station/object OM8AKX-4. If no packets are shown the sender has not sent any weather packets the latest 10 day(s).
| Time | Temp. | Humidity | Pressure | Rain* | Wind** | Luminosity | Snow |
|---|---|---|---|---|---|---|---|
| 1777652818 | 5.56° C | 65% | 883.1 hPa | - | - | - | - |
| 1777651917 | 6.11° C | 64% | 883.1 hPa | - | - | - | - |
| 1777651017 | 6.11° C | 63% | 883.2 hPa | - | - | - | - |
| 1777650117 | 6.11° C | 62% | 883.3 hPa | - | - | - | - |
| 1777649217 | 6.67° C | 60% | 883.3 hPa | - | - | - | - |
| 1777648317 | 6.67° C | 59% | 883.4 hPa | - | - | - | - |
| 1777647417 | 6.67° C | 58% | 883.5 hPa | - | - | - | - |
| 1777646517 | 6.67° C | 58% | 883.6 hPa | - | - | - | - |
| 1777645617 | 6.67° C | 57% | 883.5 hPa | - | - | - | - |
| 1777644717 | 7.22° C | 57% | 883.7 hPa | - | - | - | - |
| 1777643816 | 7.22° C | 57% | 883.6 hPa | - | - | - | - |
| 1777642916 | 6.67° C | 58% | 883.5 hPa | - | - | - | - |
| 1777642016 | 6.67° C | 58% | 883.7 hPa | - | - | - | - |
| 1777641118 | 6.67° C | 57% | 883.6 hPa | - | - | - | - |
| 1777640218 | 7.22° C | 56% | 883.7 hPa | - | - | - | - |
| 1777639318 | 7.22° C | 55% | 883.7 hPa | - | - | - | - |
| 1777638418 | 6.67° C | 56% | 883.7 hPa | - | - | - | - |
| 1777637518 | 6.67° C | 57% | 883.8 hPa | - | - | - | - |
| 1777636618 | 7.22° C | 55% | 883.9 hPa | - | - | - | - |
| 1777635718 | 6.67° C | 56% | 883.8 hPa | - | - | - | - |
| 1777634818 | 6.11° C | 59% | 884 hPa | - | - | - | - |
| 1777633918 | 5.56° C | 61% | 884 hPa | - | - | - | - |
| 1777633018 | 5.56° C | 63% | 884.3 hPa | - | - | - | - |
| 1777632118 | 5.56° C | 63% | 883.9 hPa | - | - | - | - |
| 1777631217 | 6.11° C | 62% | 884.1 hPa | - | - | - | - |
* Rain since midnight (hover to see other rain measurements)
** Current wind speed in m/s (hover to see current wind gust speed)